createdAt,value
2018-07-15T00:01:52.678Z,2.10
2018-07-15T00:06:55.931Z,2.10
2018-07-15T00:11:59.270Z,2.30
2018-07-15T00:17:02.621Z,2.40
2018-07-15T00:22:06.031Z,2.43
2018-07-15T00:27:09.287Z,1.90
2018-07-15T00:32:12.550Z,1.77
2018-07-15T00:37:15.829Z,1.63
2018-07-15T00:42:19.082Z,1.87
2018-07-15T00:47:22.264Z,1.90
2018-07-15T00:52:25.574Z,1.87
2018-07-15T00:57:28.802Z,1.70
2018-07-15T01:02:32.258Z,1.87
2018-07-15T01:07:35.600Z,1.67
2018-07-15T01:12:38.829Z,1.70
2018-07-15T01:17:41.813Z,1.60
2018-07-15T01:22:45.074Z,1.83
2018-07-15T01:27:48.301Z,1.83
2018-07-15T01:32:51.545Z,1.87
2018-07-15T01:37:54.790Z,2.27
2018-07-15T01:42:58.097Z,1.73
2018-07-15T01:48:01.379Z,2.00
2018-07-15T01:53:04.738Z,2.30
2018-07-15T01:58:07.965Z,1.83
2018-07-15T02:03:11.229Z,1.77
2018-07-15T02:08:14.510Z,1.97
2018-07-15T02:13:17.767Z,1.90
2018-07-15T02:18:21.022Z,2.00
2018-07-15T02:23:24.322Z,2.23
2018-07-15T02:28:27.627Z,2.30
2018-07-15T02:33:30.891Z,2.00
2018-07-15T02:38:34.243Z,2.53
2018-07-15T02:43:37.551Z,2.17
2018-07-15T02:48:40.834Z,2.10
2018-07-15T02:53:44.167Z,2.30
2018-07-15T02:58:47.396Z,1.90
2018-07-15T03:03:50.691Z,2.10
2018-07-15T03:08:53.974Z,2.57
2018-07-15T03:13:57.310Z,2.07
2018-07-15T03:19:00.606Z,2.40
2018-07-15T03:24:03.891Z,2.20
2018-07-15T03:29:07.174Z,2.37
2018-07-15T03:34:10.505Z,2.23
2018-07-15T03:39:13.743Z,2.27
2018-07-15T03:44:16.974Z,2.30
2018-07-15T03:49:20.362Z,2.20
2018-07-15T03:54:23.622Z,2.37
2018-07-15T03:59:26.863Z,2.57
2018-07-15T04:04:30.149Z,2.43
2018-07-15T04:09:33.403Z,2.77
2018-07-15T04:14:36.667Z,2.63
2018-07-15T04:19:40.075Z,2.43
2018-07-15T04:24:43.360Z,2.27
2018-07-15T04:29:46.628Z,2.83
2018-07-15T04:34:49.884Z,2.77
2018-07-15T04:39:53.236Z,2.37
2018-07-15T04:44:56.648Z,2.03
2018-07-15T04:50:00.014Z,2.63
2018-07-15T04:55:05.470Z,2.90
2018-07-15T05:00:08.708Z,2.97
2018-07-15T05:05:11.966Z,2.83
2018-07-15T05:10:15.327Z,2.83
2018-07-15T05:15:18.578Z,2.90
2018-07-15T05:20:21.929Z,2.83
2018-07-15T05:25:25.158Z,3.13
2018-07-15T05:30:28.406Z,3.10
2018-07-15T05:35:31.820Z,3.80
2018-07-15T05:40:35.082Z,3.50
2018-07-15T05:45:38.378Z,3.20
2018-07-15T05:50:41.839Z,3.43
2018-07-15T05:55:45.274Z,3.53
2018-07-15T06:00:48.560Z,3.63
2018-07-15T06:05:51.923Z,3.53
2018-07-15T06:10:54.909Z,3.60
2018-07-15T06:16:00.720Z,3.83
2018-07-15T06:21:04.007Z,4.07
2018-07-15T06:26:07.335Z,3.53
2018-07-15T06:31:10.639Z,4.13
2018-07-15T06:36:13.994Z,3.90
2018-07-15T06:41:17.231Z,4.37
2018-07-15T06:46:20.498Z,4.37
2018-07-15T06:51:23.811Z,4.07
2018-07-15T06:56:27.108Z,3.80
2018-07-15T07:01:30.429Z,3.73
2018-07-15T07:06:33.722Z,3.67
2018-07-15T07:11:37.730Z,4.03
2018-07-15T07:16:40.984Z,3.37
2018-07-15T07:21:44.500Z,4.83
2018-07-15T07:26:47.839Z,3.60
2018-07-15T07:31:51.146Z,4.30
2018-07-15T07:36:54.426Z,3.80
2018-07-15T07:41:57.786Z,4.23
2018-07-15T07:47:01.521Z,4.13
2018-07-15T07:52:05.017Z,4.33
2018-07-15T07:57:08.598Z,4.40
2018-07-15T08:02:12.034Z,3.93
2018-07-15T08:07:15.367Z,4.27
2018-07-15T08:12:18.645Z,4.33
2018-07-15T08:17:22.050Z,4.40
2018-07-15T08:22:25.342Z,2.90
2018-07-15T08:27:28.602Z,2.80
2018-07-15T08:32:31.950Z,3.30
2018-07-15T08:37:35.111Z,3.30
2018-07-15T08:42:38.487Z,2.53
2018-07-15T08:47:41.784Z,2.97
2018-07-15T08:52:45.187Z,2.83
2018-07-15T08:57:48.502Z,2.90
2018-07-15T09:02:51.842Z,2.30
2018-07-15T09:07:55.104Z,2.10
2018-07-15T09:12:58.395Z,2.03
2018-07-15T09:18:01.869Z,2.20
2018-07-15T09:23:06.007Z,2.07
2018-07-15T09:28:39.510Z,2.57
2018-07-15T09:33:42.754Z,2.43
2018-07-15T09:38:46.010Z,2.20
2018-07-15T09:43:49.713Z,2.57
2018-07-15T09:48:53.067Z,2.17
2018-07-15T09:53:56.515Z,2.17
2018-07-15T09:58:59.763Z,2.30
2018-07-15T10:04:03.040Z,2.07
2018-07-15T10:09:06.928Z,2.30
2018-07-15T10:14:10.276Z,2.20
2018-07-15T10:19:13.546Z,2.40
2018-07-15T10:24:16.825Z,2.03
2018-07-15T10:29:20.282Z,2.33
2018-07-15T10:34:23.582Z,2.30
2018-07-15T10:39:26.882Z,1.93
2018-07-15T10:44:30.230Z,2.00
2018-07-15T10:49:33.589Z,1.90
2018-07-15T10:54:36.970Z,2.07
2018-07-15T10:59:40.366Z,1.80
2018-07-15T11:04:43.613Z,1.60
2018-07-15T11:09:46.854Z,1.90
2018-07-15T11:14:50.097Z,1.50
2018-07-15T11:19:53.388Z,1.97
2018-07-15T11:24:56.766Z,2.07
2018-07-15T11:30:00.039Z,1.70
2018-07-15T11:35:03.576Z,2.03
2018-07-15T11:40:06.870Z,2.00
2018-07-15T11:45:10.228Z,1.80
2018-07-15T11:50:13.525Z,1.50
2018-07-15T11:55:16.826Z,1.40
2018-07-15T12:00:20.078Z,1.50
2018-07-15T12:05:23.439Z,1.30
2018-07-15T12:10:26.686Z,1.50
2018-07-15T12:15:52.865Z,1.30
2018-07-15T12:20:56.315Z,1.30
2018-07-15T12:25:59.653Z,1.60
2018-07-15T12:31:03.097Z,1.30
2018-07-15T12:36:06.364Z,1.30
2018-07-15T12:41:09.695Z,1.30
2018-07-15T12:46:12.991Z,1.60
2018-07-15T12:51:16.294Z,1.80
2018-07-15T12:56:19.598Z,1.90
2018-07-15T13:01:22.859Z,1.37
2018-07-15T13:06:26.178Z,0.93
2018-07-15T13:11:29.422Z,1.87
2018-07-15T13:16:32.875Z,1.80
2018-07-15T13:21:36.107Z,1.10
2018-07-15T13:26:39.430Z,1.40
2018-07-15T13:31:42.710Z,1.60
2018-07-15T13:36:45.946Z,1.80
2018-07-15T13:41:49.290Z,1.10
2018-07-15T13:46:52.494Z,1.30
2018-07-15T13:51:55.723Z,1.20
2018-07-15T13:56:59.086Z,1.60
2018-07-15T14:02:02.435Z,1.63
2018-07-15T14:07:05.731Z,1.30
2018-07-15T14:12:09.034Z,1.60
2018-07-15T14:17:12.544Z,1.20
2018-07-15T14:22:15.894Z,1.07
2018-07-15T14:27:19.117Z,2.90
2018-07-15T14:32:22.451Z,1.90
2018-07-15T14:37:25.710Z,1.27
2018-07-15T14:42:28.989Z,1.40
2018-07-15T14:47:32.346Z,2.50
2018-07-15T14:52:35.594Z,1.57
2018-07-15T14:57:39.694Z,1.30
2018-07-15T15:02:42.990Z,1.20
2018-07-15T15:07:46.239Z,1.23
2018-07-15T15:12:49.491Z,1.50
2018-07-15T15:17:52.738Z,1.30
2018-07-15T15:22:56.098Z,1.80
2018-07-15T15:27:59.522Z,1.47
2018-07-15T15:33:02.826Z,1.30
2018-07-15T15:38:06.088Z,1.47
2018-07-15T15:43:09.554Z,1.30
2018-07-15T15:53:40.874Z,1.50
2018-07-15T15:58:44.258Z,1.20
2018-07-15T16:03:47.483Z,1.27
2018-07-15T16:08:50.866Z,1.27
2018-07-15T16:13:53.831Z,1.23
2018-07-15T16:18:57.094Z,1.10
2018-07-15T16:24:00.557Z,1.20
2018-07-15T16:29:03.911Z,1.10
2018-07-15T16:34:13.855Z,1.23
2018-07-15T16:39:17.014Z,1.47
2018-07-15T16:44:20.323Z,1.30
2018-07-15T16:49:23.815Z,1.20
2018-07-15T16:54:27.154Z,1.60
2018-07-15T16:59:30.509Z,1.17
2018-07-15T17:04:33.742Z,1.10
2018-07-15T17:09:37.020Z,1.20
2018-07-15T17:14:40.298Z,1.30
2018-07-15T17:19:43.547Z,1.00
2018-07-15T17:24:46.835Z,0.90
2018-07-15T17:29:50.228Z,0.80
2018-07-15T17:34:53.461Z,0.80
2018-07-15T17:39:56.739Z,1.03
2018-07-15T17:45:00.090Z,0.87
2018-07-15T17:50:03.405Z,1.00
2018-07-15T17:55:06.966Z,1.00
2018-07-15T18:00:10.380Z,0.67
2018-07-15T18:05:13.624Z,0.80
2018-07-15T18:10:16.918Z,0.80
2018-07-15T18:15:20.174Z,0.80
2018-07-15T18:20:23.490Z,0.80
2018-07-15T18:25:26.934Z,0.90
2018-07-15T18:30:30.210Z,1.00
2018-07-15T18:35:33.539Z,0.80
2018-07-15T18:40:36.871Z,1.00
2018-07-15T18:45:40.174Z,0.87
2018-07-15T18:50:43.485Z,0.80
2018-07-15T18:55:46.749Z,1.37
2018-07-15T19:00:50.093Z,1.00
2018-07-15T19:05:53.409Z,0.80
2018-07-15T19:10:57.271Z,0.80
2018-07-15T19:16:01.097Z,0.87
2018-07-15T19:21:04.488Z,0.63
2018-07-15T19:26:07.839Z,0.67
2018-07-15T19:31:11.231Z,0.60
2018-07-15T19:36:14.590Z,0.70
2018-07-15T19:41:17.923Z,0.90
2018-07-15T19:46:21.210Z,0.70
2018-07-15T19:51:24.532Z,1.00
2018-07-15T19:56:27.792Z,1.70
2018-07-15T20:01:31.091Z,0.70
2018-07-15T20:06:34.388Z,0.60
2018-07-15T20:11:37.771Z,0.70
2018-07-15T20:16:41.091Z,0.70
2018-07-15T20:21:44.420Z,1.00
2018-07-15T20:26:47.695Z,0.80
2018-07-15T20:31:50.941Z,0.60
2018-07-15T20:36:54.222Z,0.73
2018-07-15T20:41:57.591Z,0.83
2018-07-15T20:47:01.003Z,0.90
2018-07-15T20:52:04.244Z,0.90
2018-07-15T20:57:07.999Z,0.60
2018-07-15T21:02:11.333Z,1.03
2018-07-15T21:07:14.573Z,0.93
2018-07-15T21:12:17.941Z,0.80
2018-07-15T21:17:21.198Z,0.60
2018-07-15T21:22:24.494Z,0.90
2018-07-15T21:27:27.926Z,1.10
2018-07-15T21:32:31.157Z,1.00
2018-07-15T21:37:34.461Z,1.10
2018-07-15T21:42:37.769Z,0.97
2018-07-15T21:47:41.024Z,1.00
2018-07-15T21:52:44.058Z,0.80
2018-07-15T21:57:47.310Z,0.97
2018-07-15T22:02:50.581Z,1.00
2018-07-15T22:08:05.202Z,1.10
2018-07-15T22:13:08.465Z,0.80
2018-07-15T22:18:11.710Z,0.93
2018-07-15T22:23:14.962Z,0.80
2018-07-15T22:28:18.301Z,0.80
2018-07-15T22:33:21.578Z,1.00
2018-07-15T22:38:24.905Z,0.80
2018-07-15T22:43:28.152Z,0.80
2018-07-15T22:48:31.427Z,0.80
2018-07-15T22:53:34.682Z,0.80
2018-07-15T22:58:38.006Z,0.97
2018-07-15T23:03:42.120Z,0.90
2018-07-15T23:08:45.378Z,0.90
2018-07-15T23:13:48.842Z,0.93
2018-07-15T23:18:52.078Z,0.90
2018-07-15T23:23:55.318Z,0.90
2018-07-15T23:28:58.547Z,0.70
2018-07-15T23:34:01.766Z,0.60
2018-07-15T23:39:05.719Z,0.80
2018-07-15T23:44:08.965Z,0.77
2018-07-15T23:49:12.202Z,0.70
2018-07-15T23:54:15.446Z,0.73
2018-07-15T23:59:18.683Z,0.80
